Time;durP1;ratioP1;P1;durP2;ratioP2;P2;SDS_P1;SDS_P2;PMS_P1;PMS_P2;Temp;Humidity;BMP_temperature;BMP_pressure;BME280_temperature;BME280_humidity;BME280_pressure;Samples;Min_cycle;Max_cycle;Signal;HPM_P1;HPM_P2
2023/09/27 00:00:07;;;;;;;6.18;4.70;;;;;;;13.97;72.18;96751.69;5134252;27;20112;-62
2023/09/27 00:02:34;;;;;;;12.75;4.82;;;;;;;14.00;72.62;96744.47;5134079;27;20084;-61
2023/09/27 00:05:06;;;;;;;9.05;4.38;;;;;;;14.02;72.18;96753.16;5134074;27;20055;-62
2023/09/27 00:07:34;;;;;;;9.68;5.20;;;;;;;14.01;71.87;96740.94;5134226;27;20446;-62
2023/09/27 00:10:01;;;;;;;14.05;4.53;;;;;;;13.96;72.06;96742.06;5134089;28;20086;-62
2023/09/27 00:12:28;;;;;;;12.75;4.90;;;;;;;13.91;71.80;96739.69;5134311;28;20054;-62
2023/09/27 00:15:00;;;;;;;7.05;4.50;;;;;;;13.85;72.21;96738.19;5134119;28;20047;-61
2023/09/27 00:17:28;;;;;;;11.18;5.35;;;;;;;13.86;72.37;96741.66;5134004;28;20100;-62
2023/09/27 00:19:56;;;;;;;11.10;4.60;;;;;;;13.81;72.57;96741.06;5134003;28;20051;-62
2023/09/27 00:22:25;;;;;;;7.53;4.97;;;;;;;13.75;72.62;96731.66;5134073;28;20051;-61
2023/09/27 00:24:52;;;;;;;9.75;4.80;;;;;;;13.70;72.94;96733.69;5134279;27;20055;-61
2023/09/27 00:27:19;;;;;;;8.20;5.22;;;;;;;13.61;73.42;96730.53;5134053;28;20051;-61
2023/09/27 00:29:48;;;;;;;10.80;4.30;;;;;;;13.64;73.22;96724.31;5134608;27;20548;-61
2023/09/27 00:32:16;;;;;;;9.30;4.93;;;;;;;13.61;73.23;96727.91;5138076;27;20069;-62
2023/09/27 00:34:44;;;;;;;9.27;4.57;;;;;;;13.63;73.59;96717.31;5138044;27;20400;-62
2023/09/27 00:37:11;;;;;;;9.95;4.93;;;;;;;13.52;74.26;96716.06;5138026;27;20119;-62
2023/09/27 00:39:39;;;;;;;9.40;4.95;;;;;;;13.52;74.02;96718.69;5138197;27;20147;-62
2023/09/27 00:42:06;;;;;;;8.43;5.07;;;;;;;13.48;74.78;96717.09;5138025;27;20469;-61
2023/09/27 00:44:33;;;;;;;9.50;4.97;;;;;;;13.44;74.81;96712.91;5137883;27;20043;-62
2023/09/27 00:47:00;;;;;;;9.70;4.88;;;;;;;13.40;75.32;96714.00;5137834;27;20047;-61
2023/09/27 00:49:29;;;;;;;13.60;5.25;;;;;;;13.40;75.52;96712.19;5137669;27;20437;-61
2023/09/27 00:51:56;;;;;;;10.65;5.35;;;;;;;13.35;75.36;96706.31;5137853;27;20069;-61
2023/09/27 00:54:23;;;;;;;15.52;5.30;;;;;;;13.37;75.39;96703.63;5137688;27;20054;-61
2023/09/27 00:56:52;;;;;;;12.27;5.00;;;;;;;13.26;75.70;96707.59;5137752;27;20047;-62
2023/09/27 00:59:20;;;;;;;8.05;4.90;;;;;;;13.21;76.31;96703.47;5137652;27;20050;-61
2023/09/27 01:01:47;;;;;;;12.55;5.68;;;;;;;13.23;76.53;96704.25;5137352;27;20054;-62
2023/09/27 01:04:15;;;;;;;13.60;5.22;;;;;;;13.20;76.50;96699.16;5137564;27;20039;-61
2023/09/27 01:06:44;;;;;;;18.00;6.07;;;;;;;13.18;77.11;96701.84;5137482;27;20086;-62
2023/09/27 01:09:12;;;;;;;9.10;5.10;;;;;;;13.16;76.94;96695.81;5137414;27;20051;-61
2023/09/27 01:11:39;;;;;;;11.43;4.90;;;;;;;13.07;76.86;96702.34;5137483;27;20086;-61
2023/09/27 01:14:06;;;;;;;6.78;5.22;;;;;;;13.06;77.39;96690.13;5137419;27;20078;-61
2023/09/27 01:16:34;;;;;;;11.60;5.10;;;;;;;13.08;77.21;96695.31;5137293;27;20058;-61
2023/09/27 01:19:02;;;;;;;15.32;6.40;;;;;;;12.99;77.63;96688.69;5137281;27;20103;-61
2023/09/27 01:21:31;;;;;;;12.60;5.90;;;;;;;12.99;77.96;96699.22;5137288;27;20066;-61
2023/09/27 01:23:59;;;;;;;12.45;5.30;;;;;;;13.02;77.91;96699.94;5137309;27;20100;-61
2023/09/27 01:26:28;;;;;;;11.43;5.30;;;;;;;13.04;77.65;96693.75;5137157;27;20089;-61
2023/09/27 01:28:55;;;;;;;13.85;6.03;;;;;;;13.00;78.16;96700.91;5137082;27;20075;-61
2023/09/27 01:31:22;;;;;;;11.18;5.43;;;;;;;12.99;78.23;96694.81;5136879;27;20381;-61
2023/09/27 01:33:49;;;;;;;9.43;5.55;;;;;;;13.02;78.22;96699.06;5136908;27;20447;-61
2023/09/27 01:36:16;;;;;;;12.52;5.55;;;;;;;13.07;78.13;96691.84;5136791;27;20055;-61
2023/09/27 01:38:43;;;;;;;6.55;5.32;;;;;;;13.12;78.08;96702.13;5136897;27;20050;-61
2023/09/27 01:41:13;;;;;;;7.38;4.72;;;;;;;13.13;77.95;96699.41;5136808;27;20075;-61
2023/09/27 01:43:40;;;;;;;11.68;5.72;;;;;;;13.06;78.41;96702.41;5136666;27;20047;-61
2023/09/27 01:46:07;;;;;;;11.63;5.82;;;;;;;13.08;78.44;96697.94;5136487;27;20085;-62
2023/09/27 01:48:34;;;;;;;8.32;5.50;;;;;;;13.02;78.83;96702.56;5136965;27;20051;-62
2023/09/27 01:51:02;;;;;;;7.55;5.18;;;;;;;13.05;78.74;96706.81;5136740;27;20054;-61
2023/09/27 01:53:29;;;;;;;13.65;5.30;;;;;;;13.06;78.74;96705.06;5136775;27;20122;-62
2023/09/27 01:55:56;;;;;;;7.82;5.35;;;;;;;13.02;78.55;96699.94;5136628;27;20047;-62
2023/09/27 01:58:24;;;;;;;8.45;4.93;;;;;;;12.95;78.40;96706.38;5136642;27;20107;-62
2023/09/27 02:00:51;;;;;;;12.75;5.95;;;;;;;12.86;78.91;96698.91;5136432;27;20145;-62
2023/09/27 02:03:18;;;;;;;8.27;5.03;;;;;;;12.86;79.14;96712.88;5136299;27;20080;-62
2023/09/27 02:05:45;;;;;;;11.20;5.68;;;;;;;12.80;79.73;96705.28;5136160;27;20054;-62
2023/09/27 02:08:13;;;;;;;7.68;5.72;;;;;;;12.79;79.88;96705.38;5136262;27;20185;-62
2023/09/27 02:10:40;;;;;;;13.32;5.68;;;;;;;12.79;80.05;96705.38;5136102;27;20043;-62
2023/09/27 02:13:07;;;;;;;12.18;5.35;;;;;;;12.75;80.87;96708.13;5135983;27;20446;-62
2023/09/27 02:15:35;;;;;;;12.95;5.85;;;;;;;12.85;80.67;96705.94;5136228;27;20133;-62
2023/09/27 02:18:03;;;;;;;11.32;5.63;;;;;;;12.86;80.40;96699.75;5136371;27;20113;-62
2023/09/27 02:20:30;;;;;;;13.93;6.15;;;;;;;12.84;80.80;96698.97;5136211;27;20043;-62
2023/09/27 02:22:57;;;;;;;8.80;4.63;;;;;;;12.86;81.03;96702.38;5135889;27;20046;-62
2023/09/27 02:25:25;;;;;;;9.52;5.43;;;;;;;12.76;81.22;96701.94;5135913;27;20103;-62
2023/09/27 02:27:52;;;;;;;11.02;5.68;;;;;;;12.73;82.19;96707.31;5135945;27;20389;-62
2023/09/27 02:30:19;;;;;;;14.38;5.88;;;;;;;12.73;82.54;96695.97;5135862;27;20130;-62
2023/09/27 02:32:48;;;;;;;10.65;5.20;;;;;;;12.82;82.04;96700.81;5135977;27;20047;-62
2023/09/27 02:35:18;;;;;;;15.88;5.95;;;;;;;12.77;83.06;96702.81;5135728;27;20169;-62
2023/09/27 02:37:46;;;;;;;12.52;5.88;;;;;;;12.71;82.88;96701.31;5135862;27;20056;-62
2023/09/27 02:40:15;;;;;;;15.57;6.03;;;;;;;12.67;83.41;96698.88;5135753;27;20043;-62
2023/09/27 02:42:45;;;;;;;12.10;6.00;;;;;;;12.69;83.20;96708.38;5135525;27;20079;-62
2023/09/27 02:45:13;;;;;;;11.03;5.47;;;;;;;12.71;84.81;96717.06;5135595;27;20051;-62
2023/09/27 02:47:47;;;;;;;10.68;5.07;;;;;;;12.73;83.41;96707.31;5135419;27;20096;-62
2023/09/27 02:50:17;;;;;;;15.05;5.28;;;;;;;12.82;83.26;96710.47;5135461;27;20092;-62
2023/09/27 02:52:45;;;;;;;11.27;5.53;;;;;;;12.87;82.57;96714.59;5134878;27;20047;-62
2023/09/27 02:55:14;;;;;;;9.82;5.75;;;;;;;12.90;82.50;96705.72;5135403;27;20054;-62
2023/09/27 02:57:42;;;;;;;10.48;5.60;;;;;;;12.91;82.49;96712.66;5135205;27;20047;-62
2023/09/27 03:00:10;;;;;;;9.32;5.22;;;;;;;12.92;82.08;96718.78;5135363;27;20043;-61
2023/09/27 03:02:37;;;;;;;9.52;5.68;;;;;;;12.95;81.82;96714.25;5135126;27;20047;-62
2023/09/27 03:05:07;;;;;;;12.00;6.03;;;;;;;12.98;81.93;96711.47;5135124;27;20381;-62
2023/09/27 03:07:38;;;;;;;10.83;5.03;;;;;;;12.98;81.05;96716.72;5135020;27;20050;-62
2023/09/27 03:10:10;;;;;;;13.48;5.13;;;;;;;12.95;81.37;96713.41;5135098;27;20275;-62
2023/09/27 03:12:38;;;;;;;12.73;5.93;;;;;;;12.93;81.37;96707.34;5135143;27;20047;-62
2023/09/27 03:15:11;;;;;;;12.00;5.60;;;;;;;12.95;81.65;96714.25;5135163;27;20546;-62
2023/09/27 03:17:41;;;;;;;5.85;4.97;;;;;;;12.88;81.21;96718.91;5134967;27;20051;-62
2023/09/27 03:20:15;;;;;;;13.30;5.18;;;;;;;12.92;81.12;96710.91;5135105;27;20050;-62
2023/09/27 03:22:46;;;;;;;8.75;4.88;;;;;;;12.89;81.32;96712.75;5134955;27;20051;-62
2023/09/27 03:25:19;;;;;;;10.98;5.25;;;;;;;12.88;81.17;96723.31;5134583;27;20453;-62
2023/09/27 03:27:47;;;;;;;11.60;5.72;;;;;;;12.83;81.30;96720.91;5134707;27;20047;-62
2023/09/27 03:30:14;;;;;;;15.68;5.32;;;;;;;12.76;81.43;96719.44;5134732;27;20050;-62
2023/09/27 03:32:43;;;;;;;12.23;5.65;;;;;;;12.71;81.57;96719.69;5134627;27;20047;-62
2023/09/27 03:35:10;;;;;;;9.43;5.43;;;;;;;12.74;81.61;96721.31;5134647;27;20051;-62
2023/09/27 03:37:39;;;;;;;12.32;6.22;;;;;;;12.74;81.76;96723.94;5134581;27;20047;-62
2023/09/27 03:40:15;;;;;;;11.30;5.05;;;;;;;12.73;81.54;96722.22;5134617;27;20484;-62
2023/09/27 03:42:49;;;;;;;11.85;6.15;;;;;;;12.76;81.80;96724.69;5134594;27;20092;-62
2023/09/27 03:45:17;;;;;;;12.95;6.13;;;;;;;12.77;82.59;96727.25;5134468;27;20047;-62
2023/09/27 03:47:45;;;;;;;13.77;6.45;;;;;;;12.77;82.16;96727.25;5134370;27;20047;-62
2023/09/27 03:50:14;;;;;;;9.50;5.82;;;;;;;12.75;81.72;96725.63;5134460;27;20396;-62
2023/09/27 03:52:42;;;;;;;16.02;5.90;;;;;;;12.76;81.55;96727.31;5134529;27;20043;-62
2023/09/27 03:55:13;;;;;;;12.10;5.88;;;;;;;12.76;81.95;96725.56;5134361;27;20450;-62
2023/09/27 03:57:41;;;;;;;13.57;6.07;;;;;;;12.77;82.32;96715.94;5134325;27;20047;-62
2023/09/27 04:00:14;;;;;;;14.80;5.90;;;;;;;12.72;81.93;96725.75;5134142;27;20553;-62
2023/09/27 04:02:42;;;;;;;9.10;5.40;;;;;;;12.66;82.92;96732.13;5134016;27;20468;-62
2023/09/27 04:05:10;;;;;;;11.50;6.15;;;;;;;12.64;84.02;96726.94;5133217;27;20047;-62
2023/09/27 04:07:39;;;;;;;15.73;6.15;;;;;;;12.69;84.07;96732.00;5134093;27;20051;-62
2023/09/27 04:10:09;;;;;;;14.50;6.25;;;;;;;12.63;83.88;96727.03;5134235;28;20077;-62
2023/09/27 04:12:38;;;;;;;19.05;6.53;;;;;;;12.70;84.37;96727.63;5134156;27;20503;-62
2023/09/27 04:15:08;;;;;;;12.05;6.35;;;;;;;12.72;83.47;96726.63;5134101;28;20099;-62
2023/09/27 04:17:36;;;;;;;11.38;6.35;;;;;;;12.74;83.58;96726.56;5134544;27;20047;-62
2023/09/27 04:20:14;;;;;;;8.82;5.95;;;;;;;12.75;83.66;96736.13;5134053;28;20044;-62
2023/09/27 04:22:44;;;;;;;17.75;6.18;;;;;;;12.87;84.55;96726.88;5134142;28;20130;-62
2023/09/27 04:25:13;;;;;;;18.00;6.05;;;;;;;12.90;83.48;96729.34;5133929;28;20082;-62
2023/09/27 04:27:43;;;;;;;10.02;5.88;;;;;;;12.98;82.88;96721.16;5133928;27;20138;-62
2023/09/27 04:30:12;;;;;;;8.57;4.72;;;;;;;13.04;82.83;96726.13;5133956;27;20111;-62
2023/09/27 04:32:40;;;;;;;8.20;5.60;;;;;;;13.16;82.23;96729.09;5134225;28;20492;-62
2023/09/27 04:35:10;;;;;;;11.52;6.03;;;;;;;13.25;81.77;96724.28;5133870;28;20063;-62
2023/09/27 04:37:37;;;;;;;10.80;5.65;;;;;;;13.31;81.41;96732.81;5133792;27;20394;-62
2023/09/27 04:40:09;;;;;;;17.95;6.60;;;;;;;13.29;83.42;96727.63;5134238;27;20115;-62
2023/09/27 04:42:36;;;;;;;14.85;6.63;;;;;;;13.36;83.20;96736.91;5133710;28;20043;-62
2023/09/27 04:45:06;;;;;;;14.55;6.50;;;;;;;13.51;83.74;96731.91;5133789;28;20047;-62
2023/09/27 04:47:33;;;;;;;16.42;6.00;;;;;;;13.67;83.25;96733.81;5133662;28;20055;-62
2023/09/27 04:50:01;;;;;;;12.50;6.30;;;;;;;13.82;82.77;96737.50;5134027;28;20058;-62
2023/09/27 04:52:28;;;;;;;12.27;6.82;;;;;;;14.01;82.38;96740.06;5133664;28;20080;-62
2023/09/27 04:54:57;;;;;;;13.52;5.63;;;;;;;14.19;81.08;96740.97;5133875;28;20040;-62
2023/09/27 04:57:25;;;;;;;14.80;5.05;;;;;;;14.60;80.67;96744.22;5133632;28;20043;-62
2023/09/27 04:59:52;;;;;;;9.80;5.35;;;;;;;15.09;78.94;96746.09;5133683;28;20047;-62
2023/09/27 05:02:21;;;;;;;12.25;4.82;;;;;;;15.52;76.13;96742.94;5133492;28;20128;-62
2023/09/27 05:04:49;;;;;;;17.88;5.60;;;;;;;15.88;74.38;96742.75;5133752;28;20065;-62
2023/09/27 05:07:18;;;;;;;12.18;4.85;;;;;;;16.30;73.25;96748.34;5133668;28;20047;-62
2023/09/27 05:09:45;;;;;;;7.85;4.35;;;;;;;16.84;70.98;96751.38;5133545;28;20077;-62
2023/09/27 05:12:14;;;;;;;16.50;4.97;;;;;;;17.29;68.64;96746.91;5133619;28;20107;-62
2023/09/27 05:14:43;;;;;;;14.50;4.78;;;;;;;17.77;66.48;96751.00;5133602;28;20043;-62
2023/09/27 05:17:11;;;;;;;23.15;5.32;;;;;;;17.95;65.63;96756.06;5136294;27;20043;-62
2023/09/27 05:19:39;;;;;;;14.70;5.50;;;;;;;17.94;65.09;96760.47;5137229;27;20062;-62
2023/09/27 05:22:07;;;;;;;10.48;4.60;;;;;;;17.80;65.32;96755.22;5137194;27;20047;-62
2023/09/27 05:24:38;;;;;;;9.52;4.28;;;;;;;18.00;65.06;96755.75;5137244;27;20150;-62
2023/09/27 05:27:07;;;;;;;16.92;5.10;;;;;;;18.37;64.21;96756.00;5137037;27;20047;-62
2023/09/27 05:29:35;;;;;;;12.93;5.45;;;;;;;18.73;63.37;96758.94;5137092;27;20047;-62
2023/09/27 05:32:03;;;;;;;13.20;4.20;;;;;;;19.05;61.67;96760.31;5136993;27;20053;-62
2023/09/27 05:34:31;;;;;;;16.67;4.25;;;;;;;19.31;60.48;96758.56;5136854;27;20049;-62
2023/09/27 05:36:59;;;;;;;20.52;5.35;;;;;;;19.61;59.09;96763.59;5136868;27;20591;-62
2023/09/27 05:39:27;;;;;;;14.32;3.90;;;;;;;20.08;57.66;96771.78;5136872;27;20047;-62
2023/09/27 05:41:54;;;;;;;13.88;3.88;;;;;;;20.93;55.42;96772.59;5137032;27;20054;-62
2023/09/27 05:44:21;;;;;;;15.70;3.70;;;;;;;21.52;53.44;96774.34;5136811;27;20438;-62
2023/09/27 05:46:48;;;;;;;9.48;3.25;;;;;;;21.82;52.34;96772.84;5136659;27;20047;-62
2023/09/27 05:49:16;;;;;;;18.75;3.60;;;;;;;22.13;50.80;96780.19;5136775;27;20047;-62
2023/09/27 05:51:44;;;;;;;9.00;3.40;;;;;;;22.18;50.82;96776.19;5136850;27;20051;-62
2023/09/27 05:54:14;;;;;;;12.73;3.42;;;;;;;22.43;49.83;96789.31;5136798;27;20428;-62
2023/09/27 05:56:45;;;;;;;13.80;3.90;;;;;;;22.72;49.15;96786.91;5136619;27;20044;-62
2023/09/27 05:59:14;;;;;;;10.38;3.35;;;;;;;22.97;47.41;96786.66;5136654;27;20093;-62
2023/09/27 06:01:41;;;;;;;23.92;4.00;;;;;;;23.27;47.24;96784.97;5136274;27;20054;-61
2023/09/27 06:04:08;;;;;;;8.35;2.83;;;;;;;23.50;46.27;96790.19;5136411;27;20047;-61
2023/09/27 06:06:37;;;;;;;11.75;3.45;;;;;;;23.09;45.77;96793.59;5136378;27;20055;-61
2023/09/27 06:09:05;;;;;;;14.90;3.83;;;;;;;22.83;47.10;96796.66;5136332;27;20043;-62
2023/09/27 06:11:34;;;;;;;9.50;3.70;;;;;;;22.36;47.92;96786.28;5136144;27;20131;-61
2023/09/27 06:14:01;;;;;;;11.30;3.47;;;;;;;22.11;48.73;96795.44;5136181;27;20051;-61
2023/09/27 06:16:29;;;;;;;10.05;3.38;;;;;;;21.76;49.89;96784.03;5136298;27;20468;-62
2023/09/27 06:18:58;;;;;;;13.45;3.90;;;;;;;21.63;51.23;96782.28;5136021;27;20082;-61
2023/09/27 06:21:25;;;;;;;10.95;3.20;;;;;;;21.64;49.79;96789.31;5136120;27;20043;-62
2023/09/27 06:23:52;;;;;;;13.10;4.00;;;;;;;21.51;50.62;96784.13;5135952;27;20400;-61
2023/09/27 06:26:21;;;;;;;18.25;4.15;;;;;;;21.96;49.43;96780.59;5136077;27;20120;-61
2023/09/27 06:28:51;;;;;;;11.85;3.60;;;;;;;22.80;47.64;96785.41;5135229;27;20043;-61
2023/09/27 06:31:18;;;;;;;8.95;2.92;;;;;;;23.59;46.19;96791.19;5135828;27;20498;-62
2023/09/27 06:33:46;;;;;;;10.55;3.65;;;;;;;23.87;44.50;96796.75;5136055;27;20082;-61
2023/09/27 06:36:15;;;;;;;14.77;3.70;;;;;;;24.05;43.61;96798.81;5135874;27;20078;-62
2023/09/27 06:38:42;;;;;;;16.15;4.10;;;;;;;23.91;43.53;96784.00;5135669;27;20045;-61
2023/09/27 06:41:09;;;;;;;13.65;3.75;;;;;;;23.60;44.42;96790.25;5135728;27;20039;-62
2023/09/27 06:43:37;;;;;;;15.43;3.55;;;;;;;23.90;44.11;96795.66;5135629;27;20481;-61
2023/09/27 06:46:12;;;;;;;5.22;3.25;;;;;;;24.07;43.18;96792.34;5135560;27;20050;-61
2023/09/27 06:48:41;;;;;;;8.98;3.63;;;;;;;23.88;43.24;96794.94;5135741;27;20074;-61
2023/09/27 06:51:08;;;;;;;11.65;3.70;;;;;;;23.69;43.89;96791.25;5135480;27;20099;-62
2023/09/27 06:53:35;;;;;;;8.30;3.25;;;;;;;23.51;44.27;96791.03;5135359;27;20061;-62
2023/09/27 06:56:03;;;;;;;11.75;3.60;;;;;;;23.46;44.32;96789.63;5135504;27;20075;-62
2023/09/27 06:58:30;;;;;;;10.07;3.13;;;;;;;23.32;44.51;96789.91;5135422;27;20047;-62
2023/09/27 07:00:57;;;;;;;16.33;3.72;;;;;;;23.62;43.81;96795.44;5135267;27;20083;-62
2023/09/27 07:03:28;;;;;;;5.97;3.47;;;;;;;24.01;42.72;96794.69;5135142;27;20051;-62
2023/09/27 07:05:57;;;;;;;11.40;3.53;;;;;;;24.25;43.01;96799.69;5135272;27;20050;-62
2023/09/27 07:08:24;;;;;;;15.52;3.85;;;;;;;24.35;42.73;96797.06;5134965;27;20051;-62
2023/09/27 07:10:51;;;;;;;11.23;3.30;;;;;;;24.58;42.59;96802.13;5135155;27;20091;-62
2023/09/27 07:13:19;;;;;;;9.77;3.10;;;;;;;24.02;42.40;96809.75;5134945;27;20047;-62
2023/09/27 07:15:47;;;;;;;10.75;3.58;;;;;;;23.54;43.26;96796.09;5135302;27;20074;-62
2023/09/27 07:18:15;;;;;;;21.65;4.13;;;;;;;23.34;43.58;96802.19;5135277;27;20073;-61
2023/09/27 07:20:45;;;;;;;16.05;4.07;;;;;;;23.37;44.04;96798.41;5134865;27;20108;-61
2023/09/27 07:23:14;;;;;;;12.63;3.27;;;;;;;23.66;43.74;96796.84;5134952;27;20043;-62
2023/09/27 07:25:43;;;;;;;11.87;3.40;;;;;;;23.94;43.00;96794.41;5134739;27;20050;-62
2023/09/27 07:28:10;;;;;;;17.27;3.33;;;;;;;24.29;42.20;96805.63;5134882;27;20356;-62
2023/09/27 07:30:38;;;;;;;9.50;3.47;;;;;;;24.58;41.76;96797.63;5134896;27;20439;-62
2023/09/27 07:33:09;;;;;;;8.77;3.58;;;;;;;24.81;40.52;96810.72;5134705;27;20051;-62
2023/09/27 07:35:41;;;;;;;11.32;3.45;;;;;;;24.57;41.41;96805.78;5134851;27;20047;-62
2023/09/27 07:38:10;;;;;;;15.02;3.28;;;;;;;24.61;41.50;96807.19;5134583;27;20044;-62
2023/09/27 07:40:39;;;;;;;14.63;3.30;;;;;;;24.43;41.62;96801.69;5134475;27;20051;-62
2023/09/27 07:43:06;;;;;;;10.45;3.42;;;;;;;24.23;41.46;96810.53;5134439;27;20051;-62
2023/09/27 07:45:36;;;;;;;9.75;3.58;;;;;;;24.25;42.49;96798.84;5134534;27;20054;-62
2023/09/27 07:48:05;;;;;;;11.17;3.73;;;;;;;24.42;41.58;96814.22;5134380;27;20074;-62
2023/09/27 07:50:37;;;;;;;15.75;4.22;;;;;;;24.43;42.24;96807.03;5134350;27;20130;-62
2023/09/27 07:53:06;;;;;;;10.68;3.75;;;;;;;24.40;42.70;96809.97;5134510;27;20043;-62
2023/09/27 07:55:43;;;;;;;9.57;3.42;;;;;;;24.38;41.91;96812.78;5134322;27;20059;-62
2023/09/27 07:58:12;;;;;;;7.47;3.60;;;;;;;24.50;41.74;96810.00;5134279;27;20043;-62
2023/09/27 08:00:40;;;;;;;12.07;3.42;;;;;;;24.78;40.72;96808.31;5134322;27;20050;-62
2023/09/27 08:03:09;;;;;;;9.32;3.38;;;;;;;25.00;41.18;96822.41;5134131;27;20073;-62
2023/09/27 08:05:42;;;;;;;9.15;3.80;;;;;;;25.13;39.48;96816.75;5134103;27;20054;-61
2023/09/27 08:08:10;;;;;;;9.48;3.83;;;;;;;25.07;39.81;96807.47;5134228;27;20087;-62
2023/09/27 08:10:43;;;;;;;14.10;3.63;;;;;;;25.29;39.45;96813.50;5134167;27;20050;-62
2023/09/27 08:13:14;;;;;;;9.55;3.47;;;;;;;25.23;38.98;96822.09;5134127;27;20100;-62
2023/09/27 08:15:45;;;;;;;11.85;3.25;;;;;;;25.29;39.83;96816.16;5134077;27;20145;-62
2023/09/27 08:18:13;;;;;;;13.95;3.65;;;;;;;25.46;38.65;96816.38;5134111;28;20480;-62
2023/09/27 08:20:40;;;;;;;9.20;3.28;;;;;;;25.73;39.00;96817.44;5134014;28;20043;-62
2023/09/27 08:23:08;;;;;;;10.23;3.58;;;;;;;25.48;37.92;96825.97;5133969;28;20122;-62
2023/09/27 08:25:37;;;;;;;15.07;3.80;;;;;;;25.35;37.57;96814.75;5133952;28;20051;-62
2023/09/27 08:28:06;;;;;;;8.93;3.67;;;;;;;25.59;37.91;96816.06;5133928;27;20484;-62
2023/09/27 08:30:33;;;;;;;7.93;2.95;;;;;;;25.69;37.49;96819.56;5133842;28;20160;-62
2023/09/27 08:33:00;;;;;;;14.00;3.50;;;;;;;25.79;37.80;96816.03;5133989;28;20054;-62
2023/09/27 08:35:28;;;;;;;14.20;3.05;;;;;;;25.70;36.70;96825.75;5133892;28;20069;-62
2023/09/27 08:37:55;;;;;;;9.35;3.40;;;;;;;25.67;35.37;96818.03;5133818;28;20039;-62
2023/09/27 08:40:22;;;;;;;10.93;3.20;;;;;;;25.80;35.09;96825.75;5133749;28;20547;-62
2023/09/27 08:42:52;;;;;;;6.68;3.17;;;;;;;25.81;34.60;96825.59;5133794;28;20546;-62
2023/09/27 08:45:23;;;;;;;10.32;3.20;;;;;;;25.55;34.87;96831.56;5133905;28;20094;-62
2023/09/27 08:47:51;;;;;;;11.70;3.00;;;;;;;25.58;34.00;96815.22;5133562;28;20044;-62
2023/09/27 08:50:19;;;;;;;9.15;3.00;;;;;;;25.98;34.46;96815.06;5133624;27;20075;-62
2023/09/27 08:52:48;;;;;;;8.35;2.80;;;;;;;26.14;33.75;96825.13;5137740;27;20111;-62
2023/09/27 08:55:16;;;;;;;12.38;3.00;;;;;;;25.70;33.17;96820.41;5137742;27;20050;-62
2023/09/27 08:57:47;;;;;;;14.15;3.63;;;;;;;25.55;34.46;96817.34;5137707;27;20503;-61
2023/09/27 09:00:19;;;;;;;12.93;4.10;;;;;;;25.58;35.15;96809.84;5137751;27;20043;-62
2023/09/27 09:02:52;;;;;;;5.88;2.60;;;;;;;25.80;33.59;96823.06;5137536;27;20112;-61
2023/09/27 09:05:20;;;;;;;11.40;3.47;;;;;;;25.65;34.06;96833.41;5137552;27;20047;-62
2023/09/27 09:07:47;;;;;;;13.98;3.40;;;;;;;25.60;33.54;96809.75;5137433;27;20051;-62
2023/09/27 09:10:15;;;;;;;8.30;2.70;;;;;;;25.94;35.45;96805.63;5137560;27;20118;-62
2023/09/27 09:12:43;;;;;;;13.80;3.88;;;;;;;26.04;33.41;96797.56;5137348;27;20043;-62
2023/09/27 09:15:15;;;;;;;11.90;3.05;;;;;;;25.97;33.18;96813.38;5137317;27;20489;-61
2023/09/27 09:17:48;;;;;;;11.55;2.78;;;;;;;25.86;32.95;96823.28;5137301;27;20124;-62
2023/09/27 09:20:21;;;;;;;21.75;3.10;;;;;;;25.47;33.52;96808.19;5137317;27;20086;-62
2023/09/27 09:22:50;;;;;;;15.88;3.20;;;;;;;25.74;33.00;96819.16;5137266;27;20477;-61
2023/09/27 09:25:17;;;;;;;20.20;3.47;;;;;;;25.73;33.05;96818.28;5137140;27;20545;-62
2023/09/27 09:27:45;;;;;;;18.73;3.25;;;;;;;25.83;34.10;96801.34;5137004;27;20047;-61
2023/09/27 09:30:12;;;;;;;8.25;3.38;;;;;;;25.97;33.38;96808.88;5137080;27;20043;-62
2023/09/27 09:32:50;;;;;;;9.90;3.83;;;;;;;25.87;33.24;96802.72;5136999;27;20100;-62
2023/09/27 09:35:37;;;;;;;18.00;3.15;;;;;;;25.99;33.67;96787.28;5137320;27;20047;-61
2023/09/27 09:38:04;;;;;;;5.18;2.65;;;;;;;25.48;33.89;96815.25;5136921;27;20130;-61
2023/09/27 09:40:34;;;;;;;21.08;3.30;;;;;;;25.44;34.33;96802.31;5137088;27;20043;-61
2023/09/27 09:43:02;;;;;;;12.20;3.65;;;;;;;25.51;34.26;96795.38;5137100;27;20412;-61
2023/09/27 09:45:29;;;;;;;8.80;3.05;;;;;;;25.17;34.91;96798.56;5136696;27;20096;-61
2023/09/27 09:47:57;;;;;;;6.35;2.67;;;;;;;24.92;34.52;96812.41;5136735;27;20051;-61
2023/09/27 09:50:29;;;;;;;10.35;3.45;;;;;;;24.66;35.09;96799.59;5136842;27;20129;-62
2023/09/27 09:52:59;;;;;;;5.65;2.60;;;;;;;24.70;36.46;96795.66;5136584;27;20135;-62
2023/09/27 09:55:29;;;;;;;13.30;3.50;;;;;;;24.75;36.25;96795.22;5136701;27;20524;-61
2023/09/27 09:58:10;;;;;;;13.32;3.15;;;;;;;25.11;35.51;96803.50;5136492;27;20047;-62
2023/09/27 10:00:39;;;;;;;;;;;;;;;25.19;35.21;96799.28;5136920;27;20053;-62
2023/09/27 10:03:09;;;;;;;7.53;3.28;;;;;;;24.89;35.35;96810.00;5135144;27;19919;-61
2023/09/27 10:05:40;;;;;;;8.80;3.00;;;;;;;24.68;35.24;96792.25;5136371;27;20066;-61
2023/09/27 10:08:10;;;;;;;7.95;2.55;;;;;;;24.51;35.56;96792.97;5136432;27;20128;-61
2023/09/27 10:10:38;;;;;;;9.50;2.83;;;;;;;24.43;33.16;96793.66;5136290;27;20050;-61
2023/09/27 10:13:08;;;;;;;8.88;2.42;;;;;;;24.64;33.30;96785.50;5136314;27;20050;-61
2023/09/27 10:15:37;;;;;;;10.07;2.58;;;;;;;25.19;32.56;96778.69;5136260;27;20062;-61
2023/09/27 10:18:33;;;;;;;8.52;2.58;;;;;;;25.77;31.31;96764.44;5136126;27;20097;-61
2023/09/27 10:21:08;;;;;;;8.05;2.42;;;;;;;26.31;32.31;96769.06;5136052;27;20043;-61
2023/09/27 10:23:53;;;;;;;12.88;3.08;;;;;;;26.45;33.19;96760.47;5136103;27;20051;-60
2023/09/27 10:26:23;;;;;;;11.85;3.33;;;;;;;26.23;33.57;96757.22;5135843;27;20123;-61
2023/09/27 10:29:10;;;;;;;8.90;2.95;;;;;;;26.49;33.42;96761.84;5135934;27;20051;-60
2023/09/27 10:31:58;;;;;;;7.43;2.92;;;;;;;26.67;32.75;96762.84;5135851;27;20047;-60
2023/09/27 10:34:41;;;;;;;7.57;2.70;;;;;;;26.07;33.62;96744.50;5135862;27;20047;-60
2023/09/27 10:37:08;;;;;;;16.67;3.15;;;;;;;25.74;34.24;96757.53;5135899;27;20530;-60
2023/09/27 10:39:39;;;;;;;17.75;4.00;;;;;;;25.77;34.84;96764.44;5135707;27;20054;-60
2023/09/27 10:42:05;;;;;;;13.40;2.65;;;;;;;25.67;33.30;96759.13;5135924;27;20047;-61
2023/09/27 10:44:34;;;;;;;7.68;2.65;;;;;;;25.49;34.27;96750.00;5135649;27;20130;-61
2023/09/27 10:47:03;;;;;;;9.45;2.85;;;;;;;25.66;34.42;96760.97;5135692;27;20046;-61
2023/09/27 10:49:37;;;;;;;9.25;2.72;;;;;;;25.88;32.37;96750.81;5135381;27;20056;-61
2023/09/27 10:52:05;;;;;;;6.68;2.70;;;;;;;25.73;31.78;96743.28;5135501;27;20451;-61
2023/09/27 10:54:33;;;;;;;5.13;2.15;;;;;;;25.60;32.43;96742.81;5135617;27;20035;-61
2023/09/27 10:57:03;;;;;;;6.60;2.97;;;;;;;25.52;33.00;96751.53;5135475;27;20081;-61
2023/09/27 10:59:31;;;;;;;8.45;3.00;;;;;;;25.44;32.20;96746.94;5135304;27;20418;-61
2023/09/27 11:01:59;;;;;;;6.68;2.97;;;;;;;25.47;32.35;96743.94;5135221;27;20051;-61
2023/09/27 11:04:27;;;;;;;7.60;2.65;;;;;;;25.35;31.99;96745.13;5135314;27;20043;-61
2023/09/27 11:06:56;;;;;;;3.75;2.65;;;;;;;25.23;32.50;96741.81;5135192;27;20051;-61
2023/09/27 11:09:23;;;;;;;7.90;2.63;;;;;;;25.29;34.21;96737.69;5135388;27;20475;-61
2023/09/27 11:11:53;;;;;;;9.07;2.50;;;;;;;25.11;34.82;96746.50;5135178;27;20066;-61
2023/09/27 11:14:33;;;;;;;8.27;2.78;;;;;;;24.92;36.82;96734.00;5134596;27;20088;-61
2023/09/27 11:17:16;;;;;;;14.43;3.20;;;;;;;24.76;37.36;96731.88;5135185;27;20051;-60
2023/09/27 11:19:43;;;;;;;10.23;3.65;;;;;;;24.69;37.55;96736.97;5133511;27;20051;-61
2023/09/27 11:22:11;;;;;;;16.88;2.83;;;;;;;24.69;38.04;96735.16;5134838;27;20129;-60
2023/09/27 11:24:40;;;;;;;12.27;3.50;;;;;;;24.66;37.03;96729.22;5134888;27;20074;-61
2023/09/27 11:27:07;;;;;;;14.93;2.72;;;;;;;24.74;35.80;96726.66;5134869;27;20050;-61
2023/09/27 11:29:37;;;;;;;12.30;2.92;;;;;;;24.75;36.53;96723.03;5134774;27;20050;-61
2023/09/27 11:32:05;;;;;;;10.18;3.03;;;;;;;24.70;34.92;96714.59;5134735;27;20412;-61
2023/09/27 11:34:32;;;;;;;6.93;2.50;;;;;;;24.80;35.11;96709.22;5134803;27;20047;-61
2023/09/27 11:37:02;;;;;;;12.32;2.88;;;;;;;24.87;35.30;96707.69;5134615;27;20050;-61